Terminal Aerodrome Forecast
Issued by NWS Chicago, IL

Home | Current Version | Previous Version | Text Only | Print | Product List | Glossary Off
Versions: 1 2 3 4 5 6 7 8 9 10 11 12 13 14 15 16 17 18 19 20 21 22 23 24 25

000
FTUS43 KLOT 300257 AAA
TAFRFD
TAF AMD
KRFD 300257Z 3003/3024 21007KT P6SM FEW035
     FM300500 24004KT P6SM FEW250
     FM301200 23008KT P6SM SCT030 BKN060
     FM301500 23010G18KT P6SM BKN018
     FM301900 24013G21KT P6SM VCSH BKN020
     FM302200 24014G23KT P6SM -SHRA OVC020=

USA.gov is the U.S. government's official web portal to all federal, state and local government web resources and services.